sensor_id;sensor_type;location;lat;lon;timestamp;P1;durP1;ratioP1;P2;durP2;ratioP2
15474;SDS011;7839;50.462;9.678;2023-04-24T00:00:57;0.70;;;0.70;;
15474;SDS011;7839;50.462;9.678;2023-04-24T00:07:37;1.40;;;0.80;;
15474;SDS011;7839;50.462;9.678;2023-04-24T00:14:17;0.80;;;0.50;;
15474;SDS011;7839;50.462;9.678;2023-04-24T00:20:57;1.63;;;0.60;;
15474;SDS011;7839;50.462;9.678;2023-04-24T00:27:38;1.07;;;0.80;;
15474;SDS011;7839;50.462;9.678;2023-04-24T00:34:18;0.90;;;0.90;;
15474;SDS011;7839;50.462;9.678;2023-04-24T00:40:59;0.70;;;0.70;;
15474;SDS011;7839;50.462;9.678;2023-04-24T00:47:39;0.90;;;0.80;;
15474;SDS011;7839;50.462;9.678;2023-04-24T00:54:21;0.60;;;0.60;;
15474;SDS011;7839;50.462;9.678;2023-04-24T01:01:01;1.43;;;0.60;;
15474;SDS011;7839;50.462;9.678;2023-04-24T01:07:43;2.10;;;0.80;;
15474;SDS011;7839;50.462;9.678;2023-04-24T01:14:28;0.70;;;0.60;;
15474;SDS011;7839;50.462;9.678;2023-04-24T01:21:09;1.53;;;0.50;;
15474;SDS011;7839;50.462;9.678;2023-04-24T01:27:53;0.57;;;0.57;;
15474;SDS011;7839;50.462;9.678;2023-04-24T01:34:33;0.70;;;0.70;;
15474;SDS011;7839;50.462;9.678;2023-04-24T01:41:13;1.77;;;0.90;;
15474;SDS011;7839;50.462;9.678;2023-04-24T01:47:53;1.30;;;0.60;;
15474;SDS011;7839;50.462;9.678;2023-04-24T01:54:34;0.70;;;0.70;;
15474;SDS011;7839;50.462;9.678;2023-04-24T02:01:20;0.60;;;0.50;;
15474;SDS011;7839;50.462;9.678;2023-04-24T02:08:00;1.57;;;0.70;;
15474;SDS011;7839;50.462;9.678;2023-04-24T02:14:41;0.83;;;0.40;;
15474;SDS011;7839;50.462;9.678;2023-04-24T02:21:22;0.60;;;0.60;;
15474;SDS011;7839;50.462;9.678;2023-04-24T02:28:02;0.53;;;0.53;;
15474;SDS011;7839;50.462;9.678;2023-04-24T02:34:43;0.50;;;0.50;;
15474;SDS011;7839;50.462;9.678;2023-04-24T02:41:23;0.50;;;0.50;;
15474;SDS011;7839;50.462;9.678;2023-04-24T02:48:03;2.10;;;0.80;;
15474;SDS011;7839;50.462;9.678;2023-04-24T02:54:43;0.87;;;0.50;;
15474;SDS011;7839;50.462;9.678;2023-04-24T03:01:23;1.70;;;0.80;;
15474;SDS011;7839;50.462;9.678;2023-04-24T03:08:04;0.83;;;0.50;;
15474;SDS011;7839;50.462;9.678;2023-04-24T03:14:44;0.50;;;0.50;;
15474;SDS011;7839;50.462;9.678;2023-04-24T03:21:24;0.83;;;0.43;;
15474;SDS011;7839;50.462;9.678;2023-04-24T03:28:05;1.30;;;0.90;;
15474;SDS011;7839;50.462;9.678;2023-04-24T03:34:46;0.73;;;0.50;;
15474;SDS011;7839;50.462;9.678;2023-04-24T03:41:26;0.50;;;0.40;;
15474;SDS011;7839;50.462;9.678;2023-04-24T03:48:06;1.20;;;0.67;;
15474;SDS011;7839;50.462;9.678;2023-04-24T03:54:47;1.37;;;0.40;;
15474;SDS011;7839;50.462;9.678;2023-04-24T04:01:27;1.40;;;0.47;;
15474;SDS011;7839;50.462;9.678;2023-04-24T04:08:08;0.53;;;0.53;;
15474;SDS011;7839;50.462;9.678;2023-04-24T04:14:48;0.40;;;0.40;;
15474;SDS011;7839;50.462;9.678;2023-04-24T04:21:28;1.37;;;0.60;;
15474;SDS011;7839;50.462;9.678;2023-04-24T04:28:09;0.73;;;0.40;;
15474;SDS011;7839;50.462;9.678;2023-04-24T04:34:49;1.03;;;0.60;;
15474;SDS011;7839;50.462;9.678;2023-04-24T04:41:29;0.80;;;0.50;;
15474;SDS011;7839;50.462;9.678;2023-04-24T04:48:10;0.60;;;0.47;;
15474;SDS011;7839;50.462;9.678;2023-04-24T04:54:53;0.60;;;0.60;;
15474;SDS011;7839;50.462;9.678;2023-04-24T05:01:33;0.40;;;0.40;;
15474;SDS011;7839;50.462;9.678;2023-04-24T05:08:14;0.40;;;0.40;;
15474;SDS011;7839;50.462;9.678;2023-04-24T05:14:54;0.40;;;0.40;;
15474;SDS011;7839;50.462;9.678;2023-04-24T05:21:34;1.53;;;0.73;;
15474;SDS011;7839;50.462;9.678;2023-04-24T05:28:14;0.60;;;0.30;;
15474;SDS011;7839;50.462;9.678;2023-04-24T05:34:55;0.43;;;0.33;;
15474;SDS011;7839;50.462;9.678;2023-04-24T05:41:35;0.70;;;0.70;;
15474;SDS011;7839;50.462;9.678;2023-04-24T05:48:15;0.70;;;0.70;;
15474;SDS011;7839;50.462;9.678;2023-04-24T05:54:55;0.60;;;0.60;;
15474;SDS011;7839;50.462;9.678;2023-04-24T06:01:36;1.10;;;0.60;;
15474;SDS011;7839;50.462;9.678;2023-04-24T06:08:17;0.47;;;0.47;;
15474;SDS011;7839;50.462;9.678;2023-04-24T06:14:57;0.77;;;0.60;;
15474;SDS011;7839;50.462;9.678;2023-04-24T06:21:37;0.53;;;0.53;;
15474;SDS011;7839;50.462;9.678;2023-04-24T06:28:17;0.60;;;0.60;;
15474;SDS011;7839;50.462;9.678;2023-04-24T06:34:58;1.90;;;0.70;;
15474;SDS011;7839;50.462;9.678;2023-04-24T06:41:38;0.70;;;0.70;;
15474;SDS011;7839;50.462;9.678;2023-04-24T06:48:19;0.87;;;0.60;;
15474;SDS011;7839;50.462;9.678;2023-04-24T06:55:00;0.60;;;0.60;;
15474;SDS011;7839;50.462;9.678;2023-04-24T07:01:41;0.70;;;0.70;;
15474;SDS011;7839;50.462;9.678;2023-04-24T07:08:21;0.93;;;0.60;;
15474;SDS011;7839;50.462;9.678;2023-04-24T07:15:02;0.80;;;0.80;;
15474;SDS011;7839;50.462;9.678;2023-04-24T07:21:42;1.13;;;0.80;;
15474;SDS011;7839;50.462;9.678;2023-04-24T07:28:22;0.63;;;0.63;;
15474;SDS011;7839;50.462;9.678;2023-04-24T07:35:02;1.13;;;1.00;;
15474;SDS011;7839;50.462;9.678;2023-04-24T07:41:43;0.70;;;0.70;;
15474;SDS011;7839;50.462;9.678;2023-04-24T07:48:23;0.90;;;0.90;;
15474;SDS011;7839;50.462;9.678;2023-04-24T07:55:06;1.20;;;1.10;;
15474;SDS011;7839;50.462;9.678;2023-04-24T08:01:46;1.47;;;1.37;;
15474;SDS011;7839;50.462;9.678;2023-04-24T08:08:27;0.90;;;0.90;;
15474;SDS011;7839;50.462;9.678;2023-04-24T08:15:07;1.87;;;1.27;;
15474;SDS011;7839;50.462;9.678;2023-04-24T08:21:47;1.00;;;1.00;;
15474;SDS011;7839;50.462;9.678;2023-04-24T08:28:28;1.33;;;1.27;;
15474;SDS011;7839;50.462;9.678;2023-04-24T08:35:08;1.40;;;1.30;;
15474;SDS011;7839;50.462;9.678;2023-04-24T08:41:49;1.83;;;1.10;;
15474;SDS011;7839;50.462;9.678;2023-04-24T08:48:30;1.20;;;1.20;;
15474;SDS011;7839;50.462;9.678;2023-04-24T08:55:11;1.40;;;1.30;;
15474;SDS011;7839;50.462;9.678;2023-04-24T09:01:51;1.47;;;1.20;;
15474;SDS011;7839;50.462;9.678;2023-04-24T09:08:32;1.20;;;1.10;;
15474;SDS011;7839;50.462;9.678;2023-04-24T09:15:12;1.37;;;1.37;;
15474;SDS011;7839;50.462;9.678;2023-04-24T09:21:53;1.27;;;1.20;;
15474;SDS011;7839;50.462;9.678;2023-04-24T09:28:37;1.27;;;1.20;;
15474;SDS011;7839;50.462;9.678;2023-04-24T09:35:18;1.00;;;1.00;;
15474;SDS011;7839;50.462;9.678;2023-04-24T09:41:58;1.10;;;0.90;;
15474;SDS011;7839;50.462;9.678;2023-04-24T09:48:41;1.00;;;1.00;;
15474;SDS011;7839;50.462;9.678;2023-04-24T09:55:21;0.70;;;0.70;;
15474;SDS011;7839;50.462;9.678;2023-04-24T10:02:01;0.80;;;0.80;;
15474;SDS011;7839;50.462;9.678;2023-04-24T10:08:41;2.00;;;1.03;;
15474;SDS011;7839;50.462;9.678;2023-04-24T10:15:22;1.00;;;1.00;;
15474;SDS011;7839;50.462;9.678;2023-04-24T10:22:02;1.20;;;1.10;;
15474;SDS011;7839;50.462;9.678;2023-04-24T10:28:46;1.03;;;0.93;;
15474;SDS011;7839;50.462;9.678;2023-04-24T10:35:27;1.20;;;1.10;;
15474;SDS011;7839;50.462;9.678;2023-04-24T10:42:16;1.03;;;1.00;;
15474;SDS011;7839;50.462;9.678;2023-04-24T10:48:56;1.00;;;1.00;;
15474;SDS011;7839;50.462;9.678;2023-04-24T10:55:48;1.20;;;0.77;;
15474;SDS011;7839;50.462;9.678;2023-04-24T11:02:38;0.90;;;0.90;;
15474;SDS011;7839;50.462;9.678;2023-04-24T11:09:19;1.47;;;1.23;;
15474;SDS011;7839;50.462;9.678;2023-04-24T11:16:13;0.90;;;0.90;;
15474;SDS011;7839;50.462;9.678;2023-04-24T11:22:54;2.00;;;0.90;;
15474;SDS011;7839;50.462;9.678;2023-04-24T11:29:38;1.07;;;0.97;;
15474;SDS011;7839;50.462;9.678;2023-04-24T11:36:19;1.00;;;1.00;;
15474;SDS011;7839;50.462;9.678;2023-04-24T11:42:59;0.97;;;0.97;;
15474;SDS011;7839;50.462;9.678;2023-04-24T11:49:40;1.20;;;1.10;;
15474;SDS011;7839;50.462;9.678;2023-04-24T11:56:23;1.27;;;0.90;;
15474;SDS011;7839;50.462;9.678;2023-04-24T12:03:05;0.93;;;0.93;;
15474;SDS011;7839;50.462;9.678;2023-04-24T12:09:46;0.80;;;0.80;;
15474;SDS011;7839;50.462;9.678;2023-04-24T12:16:27;0.50;;;0.50;;
15474;SDS011;7839;50.462;9.678;2023-04-24T12:23:07;0.60;;;0.60;;
15474;SDS011;7839;50.462;9.678;2023-04-24T12:29:56;1.73;;;0.60;;
15474;SDS011;7839;50.462;9.678;2023-04-24T12:36:37;0.70;;;0.70;;
15474;SDS011;7839;50.462;9.678;2023-04-24T12:43:18;0.47;;;0.47;;
15474;SDS011;7839;50.462;9.678;2023-04-24T12:49:58;0.50;;;0.50;;
15474;SDS011;7839;50.462;9.678;2023-04-24T12:56:39;0.40;;;0.40;;
15474;SDS011;7839;50.462;9.678;2023-04-24T13:03:19;0.40;;;0.40;;
15474;SDS011;7839;50.462;9.678;2023-04-24T13:09:59;0.60;;;0.60;;
15474;SDS011;7839;50.462;9.678;2023-04-24T13:16:40;0.50;;;0.50;;
15474;SDS011;7839;50.462;9.678;2023-04-24T13:23:20;0.70;;;0.70;;
15474;SDS011;7839;50.462;9.678;2023-04-24T13:30:00;0.50;;;0.50;;
15474;SDS011;7839;50.462;9.678;2023-04-24T13:36:40;0.50;;;0.50;;
15474;SDS011;7839;50.462;9.678;2023-04-24T13:43:21;0.70;;;0.53;;
15474;SDS011;7839;50.462;9.678;2023-04-24T13:50:01;0.50;;;0.50;;
15474;SDS011;7839;50.462;9.678;2023-04-24T13:56:41;0.57;;;0.53;;
15474;SDS011;7839;50.462;9.678;2023-04-24T14:03:21;1.53;;;0.50;;
15474;SDS011;7839;50.462;9.678;2023-04-24T14:10:01;0.83;;;0.53;;
15474;SDS011;7839;50.462;9.678;2023-04-24T14:16:41;0.60;;;0.60;;
15474;SDS011;7839;50.462;9.678;2023-04-24T14:23:22;1.47;;;1.37;;
15474;SDS011;7839;50.462;9.678;2023-04-24T14:30:02;2.00;;;1.03;;
15474;SDS011;7839;50.462;9.678;2023-04-24T14:36:43;0.60;;;0.60;;
15474;SDS011;7839;50.462;9.678;2023-04-24T14:43:23;0.60;;;0.60;;
15474;SDS011;7839;50.462;9.678;2023-04-24T14:50:03;0.80;;;0.80;;
15474;SDS011;7839;50.462;9.678;2023-04-24T14:56:44;0.70;;;0.70;;
15474;SDS011;7839;50.462;9.678;2023-04-24T15:03:24;2.00;;;1.80;;
15474;SDS011;7839;50.462;9.678;2023-04-24T15:10:06;2.77;;;1.70;;
15474;SDS011;7839;50.462;9.678;2023-04-24T15:16:47;1.83;;;1.00;;
15474;SDS011;7839;50.462;9.678;2023-04-24T15:23:27;1.40;;;1.10;;
15474;SDS011;7839;50.462;9.678;2023-04-24T15:30:07;1.57;;;1.33;;
15474;SDS011;7839;50.462;9.678;2023-04-24T15:36:48;0.90;;;0.90;;
15474;SDS011;7839;50.462;9.678;2023-04-24T15:43:28;1.03;;;0.93;;
15474;SDS011;7839;50.462;9.678;2023-04-24T15:50:14;0.80;;;0.80;;
15474;SDS011;7839;50.462;9.678;2023-04-24T15:56:55;1.03;;;0.90;;
15474;SDS011;7839;50.462;9.678;2023-04-24T16:03:36;3.13;;;2.40;;
15474;SDS011;7839;50.462;9.678;2023-04-24T16:10:16;1.17;;;1.07;;
15474;SDS011;7839;50.462;9.678;2023-04-24T16:16:56;2.13;;;1.57;;
15474;SDS011;7839;50.462;9.678;2023-04-24T16:23:36;2.27;;;2.03;;
15474;SDS011;7839;50.462;9.678;2023-04-24T16:30:17;1.13;;;1.13;;
15474;SDS011;7839;50.462;9.678;2023-04-24T16:36:57;2.97;;;2.67;;
15474;SDS011;7839;50.462;9.678;2023-04-24T16:43:37;2.97;;;2.10;;
15474;SDS011;7839;50.462;9.678;2023-04-24T16:50:17;2.77;;;2.27;;
15474;SDS011;7839;50.462;9.678;2023-04-24T16:56:58;1.40;;;1.30;;
15474;SDS011;7839;50.462;9.678;2023-04-24T17:03:38;3.23;;;2.13;;
15474;SDS011;7839;50.462;9.678;2023-04-24T17:10:18;1.13;;;1.03;;
15474;SDS011;7839;50.462;9.678;2023-04-24T17:16:59;1.20;;;1.03;;
15474;SDS011;7839;50.462;9.678;2023-04-24T17:23:39;2.00;;;1.33;;
15474;SDS011;7839;50.462;9.678;2023-04-24T17:30:19;1.50;;;1.40;;
15474;SDS011;7839;50.462;9.678;2023-04-24T17:37:00;1.47;;;1.20;;
15474;SDS011;7839;50.462;9.678;2023-04-24T17:43:41;1.20;;;1.10;;
15474;SDS011;7839;50.462;9.678;2023-04-24T17:50:21;1.67;;;1.03;;
15474;SDS011;7839;50.462;9.678;2023-04-24T17:57:01;1.17;;;1.07;;
15474;SDS011;7839;50.462;9.678;2023-04-24T18:03:43;1.07;;;1.07;;
15474;SDS011;7839;50.462;9.678;2023-04-24T18:10:23;1.53;;;0.83;;
15474;SDS011;7839;50.462;9.678;2023-04-24T18:17:04;0.80;;;0.80;;
15474;SDS011;7839;50.462;9.678;2023-04-24T18:23:45;0.70;;;0.70;;
15474;SDS011;7839;50.462;9.678;2023-04-24T18:30:25;0.70;;;0.70;;
15474;SDS011;7839;50.462;9.678;2023-04-24T18:37:07;0.80;;;0.80;;
15474;SDS011;7839;50.462;9.678;2023-04-24T18:43:47;1.00;;;1.00;;
15474;SDS011;7839;50.462;9.678;2023-04-24T18:50:27;0.90;;;0.90;;
15474;SDS011;7839;50.462;9.678;2023-04-24T18:57:10;0.90;;;0.90;;
15474;SDS011;7839;50.462;9.678;2023-04-24T19:03:50;1.33;;;0.83;;
15474;SDS011;7839;50.462;9.678;2023-04-24T19:10:31;1.30;;;1.20;;
15474;SDS011;7839;50.462;9.678;2023-04-24T19:17:13;0.87;;;0.87;;
15474;SDS011;7839;50.462;9.678;2023-04-24T19:23:53;1.20;;;1.10;;
15474;SDS011;7839;50.462;9.678;2023-04-24T19:30:35;1.13;;;1.03;;
15474;SDS011;7839;50.462;9.678;2023-04-24T19:37:17;1.47;;;1.37;;
15474;SDS011;7839;50.462;9.678;2023-04-24T19:43:57;1.53;;;1.20;;
15474;SDS011;7839;50.462;9.678;2023-04-24T19:50:37;1.50;;;1.40;;
15474;SDS011;7839;50.462;9.678;2023-04-24T19:57:18;1.47;;;1.37;;
15474;SDS011;7839;50.462;9.678;2023-04-24T20:03:58;1.53;;;1.23;;
15474;SDS011;7839;50.462;9.678;2023-04-24T20:10:41;1.40;;;1.30;;
15474;SDS011;7839;50.462;9.678;2023-04-24T20:17:22;1.20;;;1.10;;
15474;SDS011;7839;50.462;9.678;2023-04-24T20:24:03;1.20;;;1.20;;
15474;SDS011;7839;50.462;9.678;2023-04-24T20:30:44;1.67;;;1.33;;
15474;SDS011;7839;50.462;9.678;2023-04-24T20:37:25;1.40;;;1.30;;
15474;SDS011;7839;50.462;9.678;2023-04-24T20:44:05;1.30;;;1.20;;
15474;SDS011;7839;50.462;9.678;2023-04-24T20:50:45;2.10;;;1.33;;
15474;SDS011;7839;50.462;9.678;2023-04-24T20:57:25;1.33;;;1.33;;
15474;SDS011;7839;50.462;9.678;2023-04-24T21:04:06;1.60;;;1.13;;
15474;SDS011;7839;50.462;9.678;2023-04-24T21:10:46;1.10;;;1.10;;
15474;SDS011;7839;50.462;9.678;2023-04-24T21:17:26;1.40;;;1.27;;
15474;SDS011;7839;50.462;9.678;2023-04-24T21:24:06;2.30;;;1.20;;
15474;SDS011;7839;50.462;9.678;2023-04-24T21:30:47;0.90;;;0.90;;
15474;SDS011;7839;50.462;9.678;2023-04-24T21:37:27;1.90;;;1.70;;
15474;SDS011;7839;50.462;9.678;2023-04-24T21:44:07;2.00;;;1.80;;
15474;SDS011;7839;50.462;9.678;2023-04-24T21:50:48;2.83;;;1.63;;
15474;SDS011;7839;50.462;9.678;2023-04-24T21:57:28;2.03;;;1.83;;
15474;SDS011;7839;50.462;9.678;2023-04-24T22:04:08;1.87;;;1.77;;
15474;SDS011;7839;50.462;9.678;2023-04-24T22:10:50;1.67;;;1.57;;
15474;SDS011;7839;50.462;9.678;2023-04-24T22:17:30;2.03;;;1.87;;
15474;SDS011;7839;50.462;9.678;2023-04-24T22:24:10;1.43;;;1.33;;
15474;SDS011;7839;50.462;9.678;2023-04-24T22:30:51;1.60;;;1.50;;
15474;SDS011;7839;50.462;9.678;2023-04-24T22:37:31;1.87;;;1.77;;
15474;SDS011;7839;50.462;9.678;2023-04-24T22:44:11;1.80;;;1.60;;
15474;SDS011;7839;50.462;9.678;2023-04-24T22:50:51;1.63;;;1.53;;
15474;SDS011;7839;50.462;9.678;2023-04-24T22:57:32;1.73;;;1.63;;
15474;SDS011;7839;50.462;9.678;2023-04-24T23:04:12;1.50;;;1.40;;
15474;SDS011;7839;50.462;9.678;2023-04-24T23:10:52;2.07;;;1.97;;
15474;SDS011;7839;50.462;9.678;2023-04-24T23:17:32;2.20;;;2.03;;
15474;SDS011;7839;50.462;9.678;2023-04-24T23:24:13;2.03;;;1.93;;
15474;SDS011;7839;50.462;9.678;2023-04-24T23:30:53;2.20;;;2.10;;
15474;SDS011;7839;50.462;9.678;2023-04-24T23:37:33;2.20;;;2.00;;
15474;SDS011;7839;50.462;9.678;2023-04-24T23:44:14;2.70;;;2.50;;
15474;SDS011;7839;50.462;9.678;2023-04-24T23:50:54;2.20;;;2.10;;
15474;SDS011;7839;50.462;9.678;2023-04-24T23:57:35;2.50;;;2.30;;
